createdAt,value
2023-04-24T00:00:13.967Z,99735.19
2023-04-24T00:02:46.152Z,99729.03
2023-04-24T00:05:15.522Z,99725.50
2023-04-24T00:07:45.187Z,99729.03
2023-04-24T00:10:13.055Z,99722.88
2023-04-24T00:12:40.548Z,99720.25
2023-04-24T00:15:08.591Z,99715.84
2023-04-24T00:17:36.122Z,99718.50
2023-04-24T00:20:05.725Z,99715.00
2023-04-24T00:22:33.158Z,99705.34
2023-04-24T00:25:00.515Z,99704.47
2023-04-24T00:27:27.747Z,99708.88
2023-04-24T00:29:54.927Z,99704.47
2023-04-24T00:32:22.337Z,99706.22
2023-04-24T00:34:49.997Z,99701.91
2023-04-24T00:37:17.366Z,99698.47
2023-04-24T00:39:45.662Z,99702.03
2023-04-24T00:42:13.243Z,99690.69
2023-04-24T00:44:40.552Z,99698.63
2023-04-24T00:47:11.628Z,99692.53
2023-04-24T00:49:38.824Z,99691.75
2023-04-24T00:52:09.748Z,99684.75
2023-04-24T00:54:37.202Z,99685.69
2023-04-24T00:57:05.074Z,99684.84
2023-04-24T00:59:32.707Z,99674.31
2023-04-24T01:02:00.302Z,99686.66
2023-04-24T01:04:28.480Z,99684.00
2023-04-24T01:06:56.991Z,99677.03
2023-04-24T01:09:24.562Z,99675.25
2023-04-24T01:11:52.581Z,99676.19
2023-04-24T01:14:20.756Z,99676.19
2023-04-24T01:16:50.455Z,99679.75
2023-04-24T01:19:19.895Z,99678.91
2023-04-24T01:21:51.652Z,99671.94
2023-04-24T01:24:20.379Z,99664.97
2023-04-24T01:26:48.190Z,99670.22
2023-04-24T01:29:15.619Z,99671.16
2023-04-24T01:31:44.865Z,99672.97
2023-04-24T01:34:12.351Z,99674.78
2023-04-24T01:36:40.185Z,99665.16
2023-04-24T01:39:07.956Z,99666.94
2023-04-24T01:41:35.691Z,99667.88
2023-04-24T01:44:03.590Z,99663.47
2023-04-24T01:46:32.500Z,99666.13
2023-04-24T01:49:01.413Z,99667.00
2023-04-24T01:51:28.851Z,99672.31
2023-04-24T01:53:57.830Z,99665.28
2023-04-24T01:56:26.653Z,99663.56
2023-04-24T01:58:55.848Z,99660.03
2023-04-24T02:01:25.513Z,99667.06
2023-04-24T02:03:53.313Z,99670.63
2023-04-24T02:06:20.701Z,99660.97
2023-04-24T02:08:48.082Z,99655.69
2023-04-24T02:11:15.372Z,99653.09
2023-04-24T02:13:42.780Z,99658.34
2023-04-24T02:16:10.080Z,99661.03
2023-04-24T02:18:37.371Z,99671.53
2023-04-24T02:21:04.557Z,99653.09
2023-04-24T02:23:31.744Z,99654.88
2023-04-24T02:25:58.934Z,99654.88
2023-04-24T02:28:26.192Z,99661.91
2023-04-24T02:30:53.658Z,99655.78
2023-04-24T02:33:23.302Z,99663.69
2023-04-24T02:35:50.573Z,99657.56
2023-04-24T02:38:17.910Z,99654.97
2023-04-24T02:40:45.088Z,99651.44
2023-04-24T02:43:12.560Z,99658.47
2023-04-24T02:45:39.826Z,99661.97
2023-04-24T02:48:07.258Z,99657.56
2023-04-24T02:50:34.700Z,99659.28
2023-04-24T02:53:02.160Z,99661.91
2023-04-24T02:55:29.616Z,99662.78
2023-04-24T02:57:57.052Z,99661.91
2023-04-24T03:00:24.315Z,99665.41
2023-04-24T03:02:51.738Z,99664.53
2023-04-24T03:05:19.104Z,99665.41
2023-04-24T03:07:46.801Z,99662.81
2023-04-24T03:10:14.259Z,99665.44
2023-04-24T03:12:42.630Z,99661.94
2023-04-24T03:15:10.335Z,99673.34
2023-04-24T03:17:38.275Z,99671.59
2023-04-24T03:20:06.934Z,99668.09
2023-04-24T03:22:34.870Z,99672.53
2023-04-24T03:25:04.730Z,99668.13
2023-04-24T03:27:32.352Z,99674.28
2023-04-24T03:30:08.202Z,99668.97
2023-04-24T03:32:46.879Z,99669.03
2023-04-24T03:35:18.736Z,99673.44
2023-04-24T03:37:46.068Z,99665.50
2023-04-24T03:40:39.776Z,99664.66
2023-04-24T03:43:17.861Z,99663.78
2023-04-24T03:45:46.000Z,99669.03
2023-04-24T03:48:14.524Z,99663.72
2023-04-24T03:50:41.985Z,99673.34
2023-04-24T03:53:12.069Z,99670.72
2023-04-24T03:55:41.815Z,99671.59
2023-04-24T03:58:10.141Z,99677.75
2023-04-24T04:00:38.546Z,99677.75
2023-04-24T04:03:24.872Z,99670.75
2023-04-24T04:05:52.454Z,99676.91
2023-04-24T04:08:19.685Z,99682.19
2023-04-24T04:10:46.930Z,99682.19
2023-04-24T04:13:14.268Z,99677.78
2023-04-24T04:15:42.074Z,99690.03
2023-04-24T04:18:09.734Z,99688.31
2023-04-24T04:20:37.317Z,99696.22
2023-04-24T04:23:05.248Z,99694.47
2023-04-24T04:26:02.550Z,99706.75
2023-04-24T04:28:40.696Z,99707.66
2023-04-24T04:31:08.820Z,99715.56
2023-04-24T04:33:37.379Z,99710.31
2023-04-24T04:36:05.165Z,99711.22
2023-04-24T04:38:35.976Z,99718.19
2023-04-24T04:41:14.193Z,99711.22
2023-04-24T04:43:43.643Z,99722.59
2023-04-24T04:46:12.261Z,99723.47
2023-04-24T04:49:03.860Z,99728.72
2023-04-24T04:51:32.073Z,99723.53
2023-04-24T04:53:59.452Z,99738.44
2023-04-24T04:56:27.455Z,99735.81
2023-04-24T04:58:55.204Z,99734.97
2023-04-24T05:01:24.235Z,99734.13
2023-04-24T05:03:52.023Z,99731.44
2023-04-24T05:06:19.422Z,99734.97
2023-04-24T05:08:47.549Z,99742.03
2023-04-24T05:11:31.044Z,99742.03
2023-04-24T05:13:59.626Z,99748.16
2023-04-24T05:16:35.534Z,99749.00
2023-04-24T05:19:02.916Z,99755.16
2023-04-24T05:21:35.391Z,99757.78
2023-04-24T05:24:02.802Z,99763.03
2023-04-24T05:26:53.092Z,99757.78
2023-04-24T05:29:27.264Z,99765.69
2023-04-24T05:31:55.424Z,99771.81
2023-04-24T05:34:23.698Z,99770.94
2023-04-24T05:36:55.327Z,99782.31
2023-04-24T05:39:26.606Z,99783.19
2023-04-24T05:41:55.088Z,99790.22
2023-04-24T05:44:22.299Z,99785.81
2023-04-24T05:46:49.869Z,99791.06
2023-04-24T05:49:18.392Z,99791.94
2023-04-24T05:51:46.960Z,99793.69
2023-04-24T05:54:15.025Z,99805.09
2023-04-24T05:56:43.257Z,99797.19
2023-04-24T05:59:12.853Z,99801.56
2023-04-24T06:01:40.101Z,99805.06
2023-04-24T06:04:17.159Z,99804.19
2023-04-24T06:06:44.598Z,99802.44
2023-04-24T06:09:13.165Z,99808.56
2023-04-24T06:11:40.430Z,99804.16
2023-04-24T06:14:10.863Z,99818.22
2023-04-24T06:16:39.925Z,99813.81
2023-04-24T06:19:17.442Z,99815.53
2023-04-24T06:21:44.781Z,99812.88
2023-04-24T06:24:12.905Z,99826.00
2023-04-24T06:26:40.341Z,99822.47
2023-04-24T06:29:08.700Z,99835.59
2023-04-24T06:31:38.188Z,99836.41
2023-04-24T06:34:07.470Z,99840.75
2023-04-24T06:36:36.576Z,99831.91
2023-04-24T06:39:03.927Z,99833.63
2023-04-24T06:41:31.171Z,99837.09
2023-04-24T06:43:58.373Z,99836.22
2023-04-24T06:46:27.294Z,99838.84
2023-04-24T06:48:58.322Z,99837.09
2023-04-24T06:51:26.815Z,99844.09
2023-04-24T06:53:54.703Z,99852.84
2023-04-24T06:56:21.998Z,99855.47
2023-04-24T06:58:49.907Z,99849.31
2023-04-24T07:01:17.044Z,99851.94
2023-04-24T07:03:44.452Z,99849.28
2023-04-24T07:06:14.568Z,99858.03
2023-04-24T07:08:43.037Z,99854.50
2023-04-24T07:11:10.466Z,99861.47
2023-04-24T07:13:41.431Z,99859.66
2023-04-24T07:16:09.871Z,99865.78
2023-04-24T07:18:37.567Z,99870.22
2023-04-24T07:21:04.825Z,99867.63
2023-04-24T07:23:32.424Z,99872.91
2023-04-24T07:25:59.719Z,99870.28
2023-04-24T07:28:27.178Z,99877.34
2023-04-24T07:30:55.100Z,99880.91
2023-04-24T07:33:22.486Z,99882.69
2023-04-24T07:35:49.797Z,99889.72
2023-04-24T07:38:17.181Z,99891.50
2023-04-24T07:40:44.401Z,99898.47
2023-04-24T07:43:12.077Z,99901.97
2023-04-24T07:45:40.667Z,99902.84
2023-04-24T07:48:09.960Z,99905.50
2023-04-24T07:50:37.921Z,99913.41
2023-04-24T07:53:05.132Z,99913.41
2023-04-24T07:55:32.642Z,99916.97
2023-04-24T07:57:59.820Z,99921.38
2023-04-24T08:00:27.244Z,99924.00
2023-04-24T08:02:54.654Z,99934.53
2023-04-24T08:05:22.110Z,99935.44
2023-04-24T08:07:51.463Z,99936.38
2023-04-24T08:10:18.785Z,99939.03
2023-04-24T08:12:46.158Z,99945.25
2023-04-24T08:15:13.650Z,99954.06
2023-04-24T08:17:41.429Z,99954.97
2023-04-24T08:20:14.382Z,99962.00
2023-04-24T08:22:43.810Z,99964.66
2023-04-24T08:25:11.840Z,99965.56
2023-04-24T08:27:40.521Z,99982.25
2023-04-24T08:30:08.859Z,99989.28
2023-04-24T08:32:36.778Z,99988.41
2023-04-24T08:35:04.590Z,100000.69
2023-04-24T08:37:31.899Z,99998.06
2023-04-24T08:39:59.291Z,100005.09
2023-04-24T08:42:29.654Z,100001.59
2023-04-24T08:44:57.514Z,99997.25
2023-04-24T08:47:25.865Z,100003.38
2023-04-24T08:49:54.493Z,100008.63
2023-04-24T08:52:22.961Z,100008.63
2023-04-24T08:54:50.647Z,100019.16
2023-04-24T08:57:18.505Z,100027.94
2023-04-24T08:59:46.806Z,100025.31
2023-04-24T09:02:15.294Z,100034.94
2023-04-24T09:04:44.491Z,100027.97
2023-04-24T09:07:13.705Z,100036.72
2023-04-24T09:09:42.768Z,100032.34
2023-04-24T09:12:11.071Z,100056.88
2023-04-24T09:14:43.581Z,100042.00
2023-04-24T09:17:11.296Z,100061.25
2023-04-24T09:19:38.964Z,100073.53
2023-04-24T09:22:10.031Z,100070.03
2023-04-24T09:24:37.594Z,100072.69
2023-04-24T09:27:05.290Z,100076.22
2023-04-24T09:29:34.143Z,100083.22
2023-04-24T09:32:19.766Z,100086.75
2023-04-24T09:34:48.493Z,100083.25
2023-04-24T09:37:30.276Z,100084.97
2023-04-24T09:40:16.923Z,100092.88
2023-04-24T09:42:54.616Z,100100.75
2023-04-24T09:45:21.991Z,100098.13
2023-04-24T09:47:55.048Z,100099.00
2023-04-24T09:50:22.513Z,100112.16
2023-04-24T09:53:03.197Z,100120.03
2023-04-24T09:55:31.145Z,100124.41
2023-04-24T09:58:06.190Z,100126.16
2023-04-24T10:00:34.066Z,100135.78
2023-04-24T10:03:03.683Z,100134.91
2023-04-24T10:05:33.879Z,100144.53
2023-04-24T10:08:09.453Z,100145.41
2023-04-24T10:10:41.230Z,100141.03
2023-04-24T10:13:10.066Z,100148.06
2023-04-24T10:15:38.650Z,100150.66
2023-04-24T10:18:07.524Z,100157.66
2023-04-24T10:20:37.618Z,100162.06
2023-04-24T10:23:05.765Z,100166.44
2023-04-24T10:25:34.738Z,100155.91
2023-04-24T10:28:03.234Z,100168.19
2023-04-24T10:30:38.455Z,100174.31
2023-04-24T10:33:08.886Z,100175.19
2023-04-24T10:35:40.534Z,100178.69
2023-04-24T10:38:14.638Z,100189.19
2023-04-24T10:40:44.545Z,100194.44
2023-04-24T10:43:17.480Z,100201.44
2023-04-24T10:46:02.375Z,100203.19
2023-04-24T10:48:30.151Z,100207.56
2023-04-24T10:50:57.501Z,100210.19
2023-04-24T10:53:28.512Z,100214.56
2023-04-24T10:55:59.085Z,100220.72
2023-04-24T10:58:41.517Z,100218.09
2023-04-24T11:01:08.993Z,100221.59
2023-04-24T11:03:37.705Z,100227.75
2023-04-24T11:06:08.049Z,100229.47
2023-04-24T11:08:46.302Z,100225.13
2023-04-24T11:11:19.439Z,100244.38
2023-04-24T11:13:56.006Z,100245.25
2023-04-24T11:16:36.841Z,100261.88
2023-04-24T11:19:20.382Z,100260.13
2023-04-24T11:21:48.821Z,100254.00
2023-04-24T11:24:28.926Z,100258.41
2023-04-24T11:26:59.686Z,100279.44
2023-04-24T11:29:46.121Z,100266.28
2023-04-24T11:32:24.616Z,100272.41
2023-04-24T11:34:59.075Z,100273.28
2023-04-24T11:37:34.854Z,100272.41
2023-04-24T11:40:02.692Z,100284.66
2023-04-24T11:42:35.979Z,100281.16
2023-04-24T11:45:09.026Z,100282.03
2023-04-24T11:47:36.976Z,100289.91
2023-04-24T11:50:06.282Z,100282.94
2023-04-24T11:52:37.679Z,100295.19
2023-04-24T11:55:05.600Z,100296.94
2023-04-24T11:57:37.682Z,100291.66
2023-04-24T12:00:07.042Z,100305.66
2023-04-24T12:02:40.296Z,100297.75
2023-04-24T12:05:08.501Z,100307.41
2023-04-24T12:07:45.589Z,100311.75
2023-04-24T12:10:12.907Z,100310.84
2023-04-24T12:12:42.563Z,100307.34
2023-04-24T12:15:10.533Z,100311.72
2023-04-24T12:17:43.392Z,100309.09
2023-04-24T12:20:12.658Z,100317.84
2023-04-24T12:22:57.504Z,100314.34
2023-04-24T12:25:27.180Z,100309.97
2023-04-24T12:27:56.503Z,100318.75
2023-04-24T12:30:29.806Z,100321.41
2023-04-24T12:33:00.257Z,100329.31
2023-04-24T12:35:32.979Z,100331.06
2023-04-24T12:38:11.310Z,100337.25
2023-04-24T12:40:38.598Z,100339.88
2023-04-24T12:43:20.501Z,100354.81
2023-04-24T12:45:50.914Z,100357.41
2023-04-24T12:48:18.377Z,100366.19
2023-04-24T12:50:47.337Z,100360.91
2023-04-24T12:53:15.744Z,100365.31
2023-04-24T12:55:43.030Z,100372.28
2023-04-24T12:58:10.329Z,100364.44
2023-04-24T13:00:38.565Z,100362.66
2023-04-24T13:03:06.211Z,100365.28
2023-04-24T13:05:33.784Z,100380.19
2023-04-24T13:08:01.016Z,100385.44
2023-04-24T13:10:28.841Z,100382.78
2023-04-24T13:12:58.206Z,100381.88
2023-04-24T13:15:26.939Z,100390.63
2023-04-24T13:17:54.252Z,100385.34
2023-04-24T13:20:21.547Z,100394.09
2023-04-24T13:22:48.868Z,100391.47
2023-04-24T13:25:18.297Z,100385.34
2023-04-24T13:27:45.650Z,100391.47
2023-04-24T13:30:13.617Z,100394.09
2023-04-24T13:32:41.082Z,100399.34
2023-04-24T13:35:09.002Z,100394.13
2023-04-24T13:37:36.741Z,100399.38
2023-04-24T13:40:07.313Z,100402.00
2023-04-24T13:42:34.775Z,100402.00
2023-04-24T13:45:11.089Z,100405.50
2023-04-24T13:47:45.003Z,100411.63
2023-04-24T13:50:12.751Z,100415.13
2023-04-24T13:52:40.446Z,100408.13
2023-04-24T13:55:08.001Z,100417.75
2023-04-24T13:57:35.385Z,100415.97
2023-04-24T14:00:05.065Z,100411.56
2023-04-24T14:02:34.790Z,100404.56
2023-04-24T14:05:02.284Z,100406.31
2023-04-24T14:07:29.774Z,100408.09
2023-04-24T14:09:57.875Z,100400.25
2023-04-24T14:12:25.122Z,100400.28
2023-04-24T14:14:52.901Z,100395.94
2023-04-24T14:17:20.085Z,100405.56
2023-04-24T14:19:47.336Z,100401.16
2023-04-24T14:22:14.682Z,100402.03
2023-04-24T14:24:41.964Z,100405.53
2023-04-24T14:27:09.380Z,100413.41
2023-04-24T14:29:36.710Z,100417.78
2023-04-24T14:32:03.967Z,100413.38
2023-04-24T14:34:31.177Z,100415.97
2023-04-24T14:36:59.818Z,100415.94
2023-04-24T14:39:27.179Z,100414.13
2023-04-24T14:41:54.642Z,100422.81
2023-04-24T14:44:22.157Z,100416.69
2023-04-24T14:46:49.936Z,100424.56
2023-04-24T14:49:17.203Z,100430.66
2023-04-24T14:51:44.565Z,100424.53
2023-04-24T14:54:12.198Z,100426.31
2023-04-24T14:56:42.165Z,100428.06
2023-04-24T14:59:09.673Z,100424.53
2023-04-24T15:01:37.124Z,100432.44
2023-04-24T15:04:04.615Z,100431.56
2023-04-24T15:06:33.647Z,100435.91
2023-04-24T15:09:01.259Z,100438.50
2023-04-24T15:11:28.827Z,100442.91
2023-04-24T15:13:57.207Z,100433.28
2023-04-24T15:16:25.980Z,100439.41
2023-04-24T15:18:53.450Z,100439.50
2023-04-24T15:21:20.900Z,100452.56
2023-04-24T15:23:48.307Z,100442.94
2023-04-24T15:26:15.955Z,100447.31
2023-04-24T15:28:43.377Z,100449.91
2023-04-24T15:31:10.902Z,100446.34
2023-04-24T15:33:38.524Z,100446.34
2023-04-24T15:36:06.482Z,100449.81
2023-04-24T15:38:33.899Z,100450.66
2023-04-24T15:41:01.635Z,100455.03
2023-04-24T15:43:32.219Z,100446.22
2023-04-24T15:45:59.673Z,100461.06
2023-04-24T15:48:28.478Z,100459.31
2023-04-24T15:50:55.954Z,100457.63
2023-04-24T15:53:23.306Z,100449.78
2023-04-24T15:55:55.388Z,100446.31
2023-04-24T15:58:23.068Z,100445.50
2023-04-24T16:00:50.540Z,100457.75
2023-04-24T16:03:18.458Z,100448.13
2023-04-24T16:05:45.784Z,100452.53
2023-04-24T16:08:15.457Z,100454.28
2023-04-24T16:10:43.029Z,100453.41
2023-04-24T16:13:10.422Z,100467.41
2023-04-24T16:15:37.821Z,100474.41
2023-04-24T16:18:05.909Z,100464.78
2023-04-24T16:20:33.514Z,100477.88
2023-04-24T16:23:01.140Z,100471.72
2023-04-24T16:25:28.512Z,100480.44
2023-04-24T16:27:57.080Z,100479.56
2023-04-24T16:30:24.466Z,100480.41
2023-04-24T16:32:51.910Z,100485.59
2023-04-24T16:35:19.516Z,100480.38
2023-04-24T16:37:46.885Z,100483.00
2023-04-24T16:40:14.322Z,100483.00
2023-04-24T16:42:41.794Z,100483.91
2023-04-24T16:45:09.541Z,100483.03
2023-04-24T16:47:37.022Z,100485.69
2023-04-24T16:50:04.914Z,100481.28
2023-04-24T16:52:32.193Z,100483.00
2023-04-24T16:54:59.554Z,100483.91
2023-04-24T16:57:26.925Z,100485.66
2023-04-24T16:59:54.145Z,100489.16
2023-04-24T17:02:21.500Z,100489.16
2023-04-24T17:04:48.900Z,100501.41
2023-04-24T17:07:17.723Z,100495.28
2023-04-24T17:09:45.069Z,100495.25
2023-04-24T17:12:12.563Z,100503.09
2023-04-24T17:14:39.841Z,100493.44
2023-04-24T17:17:07.945Z,100501.28
2023-04-24T17:19:36.811Z,100500.38
2023-04-24T17:22:05.966Z,100500.34
2023-04-24T17:24:33.885Z,100503.00
2023-04-24T17:27:08.136Z,100500.38
2023-04-24T17:29:42.040Z,100505.59
2023-04-24T17:32:09.711Z,100512.59
2023-04-24T17:34:37.134Z,100544.94
2023-04-24T17:37:04.832Z,100536.13
2023-04-24T17:39:32.372Z,100539.53
2023-04-24T17:41:59.657Z,100546.47
2023-04-24T17:44:27.178Z,100544.69
2023-04-24T17:46:54.461Z,100544.66
2023-04-24T17:49:22.165Z,100545.50
2023-04-24T17:51:49.425Z,100548.09
2023-04-24T17:54:18.242Z,100553.28
2023-04-24T17:56:46.031Z,100555.91
2023-04-24T17:59:13.414Z,100559.44
2023-04-24T18:01:40.770Z,100560.31
2023-04-24T18:04:08.841Z,100567.28
2023-04-24T18:06:36.417Z,100567.25
2023-04-24T18:09:04.054Z,100571.56
2023-04-24T18:11:31.636Z,100562.84
2023-04-24T18:13:58.884Z,100565.47
2023-04-24T18:16:26.387Z,100567.13
2023-04-24T18:18:54.022Z,100577.69
2023-04-24T18:21:21.552Z,100575.91
2023-04-24T18:23:49.234Z,100583.75
2023-04-24T18:26:17.159Z,100577.63
2023-04-24T18:28:44.702Z,100581.13
2023-04-24T18:31:12.260Z,100583.72
2023-04-24T18:33:39.930Z,100590.66
2023-04-24T18:36:07.597Z,100592.41
2023-04-24T18:38:36.709Z,100590.63
2023-04-24T18:41:04.632Z,100596.75
2023-04-24T18:43:34.350Z,100599.34
2023-04-24T18:46:01.697Z,100602.81
2023-04-24T18:48:31.180Z,100602.81
2023-04-24T18:50:58.502Z,100605.44
2023-04-24T18:53:26.109Z,100607.19
2023-04-24T18:55:53.392Z,100617.69
2023-04-24T18:58:20.689Z,100622.94
2023-04-24T19:00:48.253Z,100619.44
2023-04-24T19:03:15.826Z,100630.78
2023-04-24T19:05:43.274Z,100630.78
2023-04-24T19:08:10.763Z,100625.53
2023-04-24T19:10:38.389Z,100634.22
2023-04-24T19:13:05.853Z,100634.22
2023-04-24T19:15:33.874Z,100646.41
2023-04-24T19:18:01.675Z,100642.03
2023-04-24T19:20:29.252Z,100642.00
2023-04-24T19:22:57.429Z,100649.81
2023-04-24T19:25:25.267Z,100649.81
2023-04-24T19:27:52.941Z,100642.81
2023-04-24T19:30:22.626Z,100651.56
2023-04-24T19:32:49.914Z,100653.28
2023-04-24T19:35:17.766Z,100657.66
2023-04-24T19:37:45.157Z,100652.41
2023-04-24T19:40:13.137Z,100655.03
2023-04-24T19:42:44.221Z,100654.16
2023-04-24T19:45:12.979Z,100658.53
2023-04-24T19:47:40.739Z,100664.59
2023-04-24T19:50:08.609Z,100657.63
2023-04-24T19:52:35.991Z,100665.53
2023-04-24T19:55:04.077Z,100668.19
2023-04-24T19:57:31.338Z,100664.69
2023-04-24T19:59:58.706Z,100657.75
2023-04-24T20:02:26.355Z,100659.50
2023-04-24T20:04:54.070Z,100658.66
2023-04-24T20:07:21.946Z,100660.38
2023-04-24T20:09:49.208Z,100664.81
2023-04-24T20:12:16.611Z,100653.47
2023-04-24T20:14:44.014Z,100664.00
2023-04-24T20:17:11.348Z,100655.22
2023-04-24T20:19:41.167Z,100663.09
2023-04-24T20:22:11.853Z,100664.84
2023-04-24T20:24:40.724Z,100662.25
2023-04-24T20:27:08.193Z,100676.25
2023-04-24T20:29:35.837Z,100674.56
2023-04-24T20:32:03.258Z,100681.59
2023-04-24T20:34:31.923Z,100687.72
2023-04-24T20:36:59.498Z,100686.00
2023-04-24T20:39:27.055Z,100686.91
2023-04-24T20:41:54.554Z,100697.41
2023-04-24T20:44:22.713Z,100693.88
2023-04-24T20:46:50.080Z,100706.97
2023-04-24T20:49:17.563Z,100703.47
2023-04-24T20:51:45.373Z,100700.81
2023-04-24T20:54:12.979Z,100701.69
2023-04-24T20:56:40.256Z,100706.91
2023-04-24T20:59:07.949Z,100707.78
2023-04-24T21:01:35.606Z,100714.75
2023-04-24T21:04:03.499Z,100717.34
2023-04-24T21:06:32.162Z,100722.56
2023-04-24T21:08:59.666Z,100719.97
2023-04-24T21:11:27.166Z,100730.44
2023-04-24T21:13:54.459Z,100724.28
2023-04-24T21:16:21.910Z,100737.28
2023-04-24T21:18:49.212Z,100743.28
2023-04-24T21:21:16.511Z,100738.88
2023-04-24T21:23:43.727Z,100741.44
2023-04-24T21:26:11.350Z,100746.66
2023-04-24T21:28:38.755Z,100753.66
2023-04-24T21:31:06.032Z,100750.13
2023-04-24T21:33:33.397Z,100760.63
2023-04-24T21:36:02.061Z,100761.50
2023-04-24T21:38:29.921Z,100755.38
2023-04-24T21:40:57.175Z,100753.63
2023-04-24T21:43:37.051Z,100769.31
2023-04-24T21:46:11.396Z,100767.53
2023-04-24T21:48:39.588Z,100771.09
2023-04-24T21:51:06.977Z,100772.84
2023-04-24T21:53:34.228Z,100775.50
2023-04-24T21:56:03.168Z,100779.84
2023-04-24T21:58:30.600Z,100776.34
2023-04-24T22:00:58.343Z,100777.25
2023-04-24T22:03:25.890Z,100782.47
2023-04-24T22:05:53.318Z,100784.19
2023-04-24T22:08:20.922Z,100788.56
2023-04-24T22:10:48.824Z,100790.25
2023-04-24T22:13:16.249Z,100792.88
2023-04-24T22:15:43.603Z,100797.28
2023-04-24T22:18:11.977Z,100797.19
2023-04-24T22:20:39.861Z,100805.00
2023-04-24T22:23:07.280Z,100804.97
2023-04-24T22:25:34.569Z,100804.94
2023-04-24T22:28:01.892Z,100809.19
2023-04-24T22:30:29.450Z,100810.06
2023-04-24T22:32:58.221Z,100811.78
2023-04-24T22:35:25.623Z,100819.66
2023-04-24T22:37:56.694Z,100811.81
2023-04-24T22:40:25.196Z,100815.31
2023-04-24T22:42:53.332Z,100813.53
2023-04-24T22:45:23.870Z,100820.53
2023-04-24T22:47:53.696Z,100822.22
2023-04-24T22:50:21.326Z,100827.44
2023-04-24T22:52:48.723Z,100825.66
2023-04-24T22:55:16.091Z,100829.19
2023-04-24T22:57:43.497Z,100825.66
2023-04-24T23:00:12.740Z,100837.00
2023-04-24T23:02:41.430Z,100830.91
2023-04-24T23:05:11.030Z,100832.59
2023-04-24T23:07:38.810Z,100834.34
2023-04-24T23:10:07.291Z,100832.59
2023-04-24T23:12:34.607Z,100838.75
2023-04-24T23:15:01.983Z,100842.25
2023-04-24T23:17:29.561Z,100835.22
2023-04-24T23:19:56.899Z,100840.47
2023-04-24T23:22:24.352Z,100846.59
2023-04-24T23:24:51.996Z,100844.78
2023-04-24T23:27:19.402Z,100850.00
2023-04-24T23:29:46.676Z,100855.19
2023-04-24T23:32:14.032Z,100857.81
2023-04-24T23:34:41.580Z,100859.53
2023-04-24T23:37:08.962Z,100862.06
2023-04-24T23:39:36.450Z,100864.66
2023-04-24T23:42:04.379Z,100873.34
2023-04-24T23:44:31.776Z,100865.50
2023-04-24T23:46:59.200Z,100868.94
2023-04-24T23:49:27.307Z,100868.03
2023-04-24T23:51:54.711Z,100875.88
2023-04-24T23:54:23.500Z,100870.66
2023-04-24T23:56:50.799Z,100875.81
2023-04-24T23:59:20.722Z,100871.34
